Beech Grove, Indiana
Current Conditions -  °F | °C
As of 3:54 PM on Friday 21 Nov 2014 (Local Time) from KIND Reporting Station
Few Clouds Few Clouds  
Wind Chill: 25°   Ceiling: Unl
Heat Index: 33°   Visibility: 10mi
Dew Point: 10°   Wind: 10mph
Humidity: 38%   Direction: 130°SE
Pressure: 30.4"   Gusts: NA
Location:  39.72°N, 86.09°W
Report Text: KIND 212054Z 13009KT 10SM FEW150 01/M12 A3040 RMK AO2 SLP307 60000 T00061122 56017
Loading
Personal Weather Stations






























Interactive Weather Map New forecast layout! Learn more

10-Day Weather Forecast

Advertisements
Track Severe Weather on mobile